Stations météo

réclame
Mon MeteoGroup
Estepona, Espagne (8463): Température de l'air & dewpoint: 22.05.2018 07:00:00 - 28.05.2018 07:00:00 (CEST)Estepona, Espagne (8463): Vitesse du vent & gusts: 22.05.2018 07:00:00 - 28.05.2018 07:00:00 (CEST)Estepona, Espagne (8463): Direction du vent: 22.05.2018 07:00:00 - 28.05.2018 07:00:00 (CEST)Estepona, Espagne (8463): visibility: 22.05.2018 07:00:00 - 28.05.2018 07:00:00 (CEST)Estepona, Espagne (8463): Ensoleillement: 22.05.2018 07:00:00 - 28.05.2018 07:00:00 (CEST)Estepona, Espagne (8463): Quantités de précipitations: 22.05.2018 07:00:00 - 28.05.2018 07:00:00 (CEST)
Date & Time tt [°C] td [°C] ff [km/h] ff [knt] fx [km/h] fx [knt] dd vv [km] sd [min] rr [mm]
28.05.2018 07:00:00 - - - - - - - - - -
28.05.2018 06:00:00 17,0 10,8 22 12 37 20 WSW 19 0 0,0
28.05.2018 05:00:00 17,1 10,2 17 9 40 22 WSW 20 0 0,0
28.05.2018 04:00:00 17,7 10,1 23 12 38 21 WSW 20 0 0,0
28.05.2018 03:00:00 17,0 10,8 21 12 40 22 WSW 20 0 0,0
28.05.2018 02:00:00 16,9 11,4 19 11 38 20 WSW 19 0 -
28.05.2018 01:00:00 17,4 11,0 18 10 35 19 WSW 20 0 0,0
28.05.2018 00:00:00 18,1 10,7 15 8 27 15 WSW 20 0 0,0
27.05.2018 23:00:00 18,9 11,0 17 9 30 16 WSW 20 0 0,0
27.05.2018 22:00:00 20,2 10,9 16 9 35 19 WSW 20 0 0,0
27.05.2018 21:00:00 - - - - - - - - - -
27.05.2018 20:00:00 24,6 9,4 - - - - - 20 60 -
27.05.2018 19:00:00 26,9 9,3 17 9 - - WSW 20 58 0,0
27.05.2018 18:00:00 - - - - - - - - - -
27.05.2018 17:00:00 28,5 9,3 19 10 - - WSW 20 35 0,0
27.05.2018 16:00:00 28,2 8,0 - - - - - 20 0 0,0
27.05.2018 15:00:00 27,2 10,0 - - - - - 20 0 0,0
27.05.2018 14:00:00 26,2 10,0 - - - - - 20 0 -
27.05.2018 13:00:00 25,7 10,7 22 12 42 23 WSW 20 18 0,0
27.05.2018 12:00:00 24,0 11,7 - - - - - 20 60 0,0
27.05.2018 11:00:00 22,5 11,6 - - - - - 19 60 0,0
27.05.2018 10:00:00 21,1 11,2 - - - - - 20 60 0,0
27.05.2018 09:00:00 19,1 10,7 - - - - - 20 45 0,0
27.05.2018 08:00:00 16,7 12,3 4 2 9 5 S 19 0 -
27.05.2018 07:00:00 17,1 12,0 - - - - - 20 0 0,0
27.05.2018 06:00:00 17,1 12,2 2 1 13 7 W 19 0 0,0
27.05.2018 05:00:00 17,3 12,2 5 3 11 6 W 19 0 0,0
27.05.2018 04:00:00 17,3 12,6 3 1 10 6 S 18 0 0,0
27.05.2018 03:00:00 17,5 12,8 3 1 10 5 NNW 19 0 0,0
27.05.2018 02:00:00 17,5 12,2 4 2 8 5 E 20 0 -
27.05.2018 01:00:00 17,3 12,2 4 2 11 6 E 15 0 0,0
27.05.2018 00:00:00 18,0 12,5 6 3 13 7 WSW 20 0 0,0
26.05.2018 23:00:00 18,4 12,6 3 1 7 4 WNW 20 0 0,0
26.05.2018 22:00:00 19,3 12,3 3 2 11 6 ENE 13 0 0,0
26.05.2018 21:00:00 21,0 12,7 3 1 - - ESE 20 46 0,0
26.05.2018 20:00:00 23,2 11,9 13 7 30 16 WSW 18 60 -
26.05.2018 19:00:00 24,7 13,3 10 5 - - WSW 20 60 0,0
26.05.2018 18:00:00 24,9 13,8 8 4 16 9 WSW 20 60 0,0
26.05.2018 17:00:00 24,8 13,4 8 4 17 9 ESE 20 39 0,0
26.05.2018 16:00:00 24,0 12,3 6 4 20 11 W 16 0 0,0
26.05.2018 15:00:00 - - - - - - - - - -
26.05.2018 14:00:00 23,9 14,3 7 4 14 7 SW 20 0 -
26.05.2018 13:00:00 23,4 11,5 4 2 13 7 SSW 20 20 0,0
26.05.2018 12:00:00 22,2 9,0 5 3 9 5 SSE 20 60 0,0
26.05.2018 11:00:00 20,0 11,0 5 3 11 6 E 19 60 0,0
26.05.2018 10:00:00 18,1 10,2 5 3 12 6 E 20 60 0,0
26.05.2018 09:00:00 17,0 10,6 4 2 10 5 SSE 20 60 0,0
26.05.2018 08:00:00 - - - - - - - - - -
26.05.2018 07:00:00 14,1 8,7 3 2 13 7 ENE 20 0 0,0
26.05.2018 06:00:00 13,8 9,1 2 1 8 5 NW 20 0 0,0
26.05.2018 05:00:00 13,9 9,6 2 1 5 3 SW 20 0 0,0
26.05.2018 04:00:00 14,4 9,6 2 1 12 7 NE 20 0 0,0
26.05.2018 03:00:00 15,6 10,4 9 5 15 8 WSW 20 0 0,0
26.05.2018 02:00:00 16,5 10,1 4 2 15 8 SW 20 0 -
26.05.2018 01:00:00 17,2 10,1 9 5 26 14 W 20 0 0,0
26.05.2018 00:00:00 18,0 10,6 13 7 31 17 W 20 0 0,0
25.05.2018 23:00:00 18,5 10,6 11 6 - - WSW 20 0 0,0
25.05.2018 22:00:00 19,5 9,7 - - - - - 20 0 0,0
25.05.2018 21:00:00 21,5 7,7 14 8 - - WSW 20 45 0,0
25.05.2018 20:00:00 24,4 6,2 - - - - - 20 60 -
25.05.2018 19:00:00 25,7 7,8 - - - - - 20 58 0,0
25.05.2018 18:00:00 26,5 8,0 - - - - - 20 54 0,0
25.05.2018 17:00:00 25,0 11,6 - - - - - 20 43 0,0
25.05.2018 16:00:00 24,2 12,2 - - - - - 20 21 0,0
25.05.2018 15:00:00 23,5 12,8 - - - - - 20 0 0,0
25.05.2018 14:00:00 23,9 10,2 - - - - - 20 0 -
25.05.2018 13:00:00 22,9 9,3 - - - - - 20 16 0,0
25.05.2018 12:00:00 19,6 12,1 - - - - - 19 0 0,2
25.05.2018 11:00:00 21,5 11,2 13 7 25 14 WSW 20 46 0,0
25.05.2018 10:00:00 19,8 11,0 14 8 25 13 WSW 20 52 0,0
25.05.2018 09:00:00 18,7 10,8 12 6 24 13 WSW 20 57 0,0
25.05.2018 08:00:00 16,5 9,4 9 5 20 11 WSW 20 22 -
25.05.2018 07:00:00 16,9 8,6 13 7 29 16 WSW 20 0 0,0
25.05.2018 06:00:00 16,5 8,5 14 7 29 15 W 20 0 0,0
25.05.2018 05:00:00 16,1 9,1 16 9 - - WSW 20 0 0,0
25.05.2018 04:00:00 17,8 6,0 5 3 18 10 W 20 0 0,0
25.05.2018 03:00:00 16,5 8,5 9 5 35 19 W 20 0 0,0
25.05.2018 02:00:00 17,1 9,8 18 10 33 18 WSW 20 0 -
25.05.2018 01:00:00 17,4 10,1 19 10 44 24 WSW 20 0 0,0
25.05.2018 00:00:00 17,8 10,4 25 13 41 22 WSW 20 0 0,0
24.05.2018 23:00:00 18,6 10,4 20 11 35 19 WSW 20 0 0,0
24.05.2018 22:00:00 19,6 10,3 21 12 37 20 WSW 20 0 0,0
24.05.2018 21:00:00 21,3 10,2 18 10 40 21 WSW 20 44 0,0
24.05.2018 20:00:00 23,9 9,9 15 8 35 19 W 20 55 -
24.05.2018 19:00:00 25,0 9,7 19 10 38 21 WSW 20 60 0,0
24.05.2018 18:00:00 25,3 9,2 22 12 42 23 WSW 20 60 0,0
24.05.2018 17:00:00 25,6 11,0 14 7 24 13 WSW 20 33 0,0
24.05.2018 16:00:00 22,3 13,9 5 3 13 7 SW 16 0 0,0
24.05.2018 15:00:00 23,3 12,9 3 2 13 7 SW 13 0 0,0
24.05.2018 14:00:00 23,9 13,2 4 2 11 6 SW 19 0 -
24.05.2018 13:00:00 24,6 9,0 4 2 10 5 ESE 16 2 0,0
24.05.2018 12:00:00 23,1 9,1 3 1 8 5 ESE 20 39 0,0
24.05.2018 11:00:00 21,7 9,6 3 2 8 4 SE 17 60 0,0
24.05.2018 10:00:00 19,4 12,9 3 2 10 5 SSW 20 60 0,0
24.05.2018 09:00:00 17,6 11,2 5 3 9 5 SW 20 60 0,0
24.05.2018 08:00:00 16,3 10,8 3 1 10 5 N 19 19 -
24.05.2018 07:00:00 15,8 10,1 3 2 9 5 N 16 0 0,0
24.05.2018 06:00:00 16,7 11,0 4 2 7 4 W 20 0 0,0
24.05.2018 05:00:00 17,3 9,5 5 3 11 6 W 20 0 0,0
24.05.2018 04:00:00 19,5 9,1 4 2 14 8 WSW 20 0 0,0
24.05.2018 03:00:00 19,7 6,1 5 3 13 7 NNE 20 0 0,0
24.05.2018 02:00:00 20,0 6,4 4 2 17 9 N 20 0 -
24.05.2018 01:00:00 19,8 4,3 8 4 17 9 NNE 20 0 0,0
24.05.2018 00:00:00 18,5 5,0 5 3 12 6 NNE 20 0 0,0
23.05.2018 23:00:00 17,9 9,5 2 1 5 3 NW 18 0 0,0
23.05.2018 22:00:00 18,8 7,3 4 2 9 5 ENE 20 0 0,0
23.05.2018 21:00:00 20,1 8,1 5 3 9 5 ENE 20 0 0,0
23.05.2018 20:00:00 21,4 7,6 5 3 13 7 ENE 20 0 -
23.05.2018 19:00:00 21,9 8,4 6 4 13 7 E 20 0 0,0
23.05.2018 18:00:00 21,9 10,1 7 4 18 10 E 20 9 0,0
23.05.2018 17:00:00 23,2 10,3 9 5 21 11 E 20 33 0,0
23.05.2018 16:00:00 23,2 11,6 12 7 19 10 E 20 3 0,0
23.05.2018 15:00:00 23,6 12,3 10 5 18 10 E 14 0 0,0
23.05.2018 14:00:00 23,6 12,3 9 5 14 8 E 20 0 -
23.05.2018 13:00:00 23,4 13,6 4 2 10 5 SW 12 24 0,0
23.05.2018 12:00:00 22,5 13,0 5 3 11 6 S 20 60 0,0
23.05.2018 11:00:00 21,0 12,4 4 2 14 8 ESE 19 50 0,0
23.05.2018 10:00:00 17,4 12,1 7 4 19 10 ENE 20 0 0,0
23.05.2018 09:00:00 16,7 11,4 6 4 14 7 NE 20 13 0,0
23.05.2018 08:00:00 15,6 11,0 5 3 11 6 WSW 20 0 -
23.05.2018 07:00:00 14,2 10,6 2 1 4 2 NNW 20 0 0,0
23.05.2018 06:00:00 14,0 10,6 3 1 6 3 ENE 20 0 0,0
23.05.2018 05:00:00 14,3 10,9 1 1 4 2 WSW 15 0 0,0
23.05.2018 04:00:00 14,8 11,2 1 1 7 4 S 14 0 0,0
23.05.2018 03:00:00 14,8 11,4 2 1 4 2 S 15 0 0,0
23.05.2018 02:00:00 - - - - - - - - - -
23.05.2018 01:00:00 16,2 12,4 3 1 7 4 W 11 0 0,0
23.05.2018 00:00:00 16,5 12,5 3 2 5 3 E 13 0 0,0
22.05.2018 23:00:00 17,3 13,0 3 2 9 5 WSW 12 0 0,0
22.05.2018 22:00:00 18,3 12,7 4 2 9 5 SW 11 0 0,0
22.05.2018 21:00:00 20,2 12,9 5 3 10 6 WSW 15 20 0,0
22.05.2018 20:00:00 - - - - - - - - - -
22.05.2018 19:00:00 23,6 13,8 7 4 11 6 SW 18 60 0,0
22.05.2018 18:00:00 22,6 13,7 6 4 10 6 E 14 60 0,0
22.05.2018 17:00:00 23,1 13,6 5 3 10 6 E 20 43 0,0
22.05.2018 16:00:00 24,4 13,3 3 2 11 6 S 20 0 0,0
22.05.2018 15:00:00 24,1 14,2 5 3 11 6 SSW 17 0 0,0
22.05.2018 14:00:00 23,4 13,9 4 2 11 6 S 15 0 -
22.05.2018 13:00:00 22,4 13,2 6 4 12 6 SSW 17 27 0,0
22.05.2018 12:00:00 21,5 13,4 6 4 11 6 SW 13 60 0,0
22.05.2018 11:00:00 19,8 13,0 5 3 8 5 E 14 60 0,0
22.05.2018 10:00:00 17,8 13,1 3 2 7 4 S 20 60 0,0
22.05.2018 09:00:00 16,3 13,0 2 1 7 4 S 14 60 0,0
22.05.2018 08:00:00 14,5 11,8 5 3 8 4 W 12 21 -
22.05.2018 07:00:00 14,1 11,3 3 1 5 3 W 9 0 0,0

tt = Température de l'air
td = dewpoint
ff = Vitesse du vent
fx = gusts
dd = Direction du vent
vv = visibility
sd = Ensoleillement
rr = Quantités de précipitations

stations d'obs. à proximité